sensor_id;sensor_type;location;lat;lon;timestamp;P1;durP1;ratioP1;P2;durP2;ratioP2
44000;SDS011;29660;42.892;24.710;2022-10-16T00:02:34;13.23;;;11.20;;
44000;SDS011;29660;42.892;24.710;2022-10-16T00:07:36;14.88;;;10.93;;
44000;SDS011;29660;42.892;24.710;2022-10-16T00:12:38;21.35;;;14.45;;
44000;SDS011;29660;42.892;24.710;2022-10-16T00:17:40;15.98;;;11.63;;
44000;SDS011;29660;42.892;24.710;2022-10-16T00:22:42;16.27;;;13.75;;
44000;SDS011;29660;42.892;24.710;2022-10-16T00:27:44;14.85;;;12.70;;
44000;SDS011;29660;42.892;24.710;2022-10-16T00:32:46;18.88;;;15.85;;
44000;SDS011;29660;42.892;24.710;2022-10-16T00:37:48;17.75;;;11.93;;
44000;SDS011;29660;42.892;24.710;2022-10-16T00:42:50;12.52;;;10.80;;
44000;SDS011;29660;42.892;24.710;2022-10-16T00:47:52;13.20;;;10.65;;
44000;SDS011;29660;42.892;24.710;2022-10-16T00:52:57;13.13;;;10.63;;
44000;SDS011;29660;42.892;24.710;2022-10-16T00:58:02;13.65;;;11.57;;
44000;SDS011;29660;42.892;24.710;2022-10-16T01:03:22;12.45;;;11.15;;
44000;SDS011;29660;42.892;24.710;2022-10-16T01:08:31;15.82;;;11.20;;
44000;SDS011;29660;42.892;24.710;2022-10-16T01:13:51;14.85;;;12.38;;
44000;SDS011;29660;42.892;24.710;2022-10-16T01:18:57;29.00;;;19.48;;
44000;SDS011;29660;42.892;24.710;2022-10-16T01:24:54;60.10;;;40.30;;
44000;SDS011;29660;42.892;24.710;2022-10-16T01:40:07;11.37;;;10.10;;
44000;SDS011;29660;42.892;24.710;2022-10-16T01:45:13;12.25;;;10.38;;
44000;SDS011;29660;42.892;24.710;2022-10-16T01:50:20;11.50;;;10.23;;
44000;SDS011;29660;42.892;24.710;2022-10-16T01:55:24;11.70;;;9.55;;
44000;SDS011;29660;42.892;24.710;2022-10-16T02:05:45;11.15;;;9.13;;
44000;SDS011;29660;42.892;24.710;2022-10-16T02:10:51;11.93;;;9.90;;
44000;SDS011;29660;42.892;24.710;2022-10-16T02:15:53;17.45;;;11.75;;
44000;SDS011;29660;42.892;24.710;2022-10-16T02:20:57;19.88;;;14.23;;
44000;SDS011;29660;42.892;24.710;2022-10-16T02:26:04;20.63;;;17.00;;
44000;SDS011;29660;42.892;24.710;2022-10-16T02:31:11;15.60;;;12.77;;
44000;SDS011;29660;42.892;24.710;2022-10-16T02:36:18;13.80;;;11.73;;
44000;SDS011;29660;42.892;24.710;2022-10-16T02:41:21;18.40;;;12.85;;
44000;SDS011;29660;42.892;24.710;2022-10-16T02:46:23;17.63;;;14.65;;
44000;SDS011;29660;42.892;24.710;2022-10-16T02:51:25;17.23;;;14.32;;
44000;SDS011;29660;42.892;24.710;2022-10-16T02:56:27;18.05;;;14.70;;
44000;SDS011;29660;42.892;24.710;2022-10-16T03:01:29;15.65;;;13.05;;
44000;SDS011;29660;42.892;24.710;2022-10-16T03:06:31;16.40;;;12.65;;
44000;SDS011;29660;42.892;24.710;2022-10-16T03:11:33;22.23;;;14.63;;
44000;SDS011;29660;42.892;24.710;2022-10-16T03:16:35;16.95;;;13.27;;
44000;SDS011;29660;42.892;24.710;2022-10-16T03:21:37;17.67;;;11.88;;
44000;SDS011;29660;42.892;24.710;2022-10-16T03:26:39;12.25;;;10.95;;
44000;SDS011;29660;42.892;24.710;2022-10-16T03:31:41;16.35;;;12.57;;
44000;SDS011;29660;42.892;24.710;2022-10-16T03:36:43;21.88;;;14.65;;
44000;SDS011;29660;42.892;24.710;2022-10-16T03:41:45;19.63;;;14.73;;
44000;SDS011;29660;42.892;24.710;2022-10-16T03:46:50;21.80;;;16.80;;
44000;SDS011;29660;42.892;24.710;2022-10-16T03:51:52;22.63;;;17.73;;
44000;SDS011;29660;42.892;24.710;2022-10-16T03:56:54;23.65;;;17.25;;
44000;SDS011;29660;42.892;24.710;2022-10-16T04:01:56;27.20;;;19.88;;
44000;SDS011;29660;42.892;24.710;2022-10-16T04:06:58;32.35;;;22.90;;
44000;SDS011;29660;42.892;24.710;2022-10-16T04:12:00;32.25;;;22.33;;
44000;SDS011;29660;42.892;24.710;2022-10-16T04:17:02;28.70;;;19.35;;
44000;SDS011;29660;42.892;24.710;2022-10-16T04:22:04;25.80;;;20.40;;
44000;SDS011;29660;42.892;24.710;2022-10-16T04:27:06;18.83;;;13.75;;
44000;SDS011;29660;42.892;24.710;2022-10-16T04:32:10;14.90;;;11.95;;
44000;SDS011;29660;42.892;24.710;2022-10-16T04:37:12;13.32;;;11.43;;
44000;SDS011;29660;42.892;24.710;2022-10-16T04:42:14;18.92;;;15.35;;
44000;SDS011;29660;42.892;24.710;2022-10-16T04:47:16;22.02;;;17.65;;
44000;SDS011;29660;42.892;24.710;2022-10-16T04:52:18;26.90;;;21.27;;
44000;SDS011;29660;42.892;24.710;2022-10-16T04:57:20;27.05;;;21.65;;
44000;SDS011;29660;42.892;24.710;2022-10-16T05:02:22;23.70;;;19.10;;
44000;SDS011;29660;42.892;24.710;2022-10-16T05:07:24;27.25;;;18.95;;
44000;SDS011;29660;42.892;24.710;2022-10-16T05:12:27;17.00;;;14.27;;
44000;SDS011;29660;42.892;24.710;2022-10-16T05:17:29;21.20;;;17.70;;
44000;SDS011;29660;42.892;24.710;2022-10-16T05:22:31;29.20;;;22.08;;
44000;SDS011;29660;42.892;24.710;2022-10-16T05:27:33;26.55;;;20.73;;
44000;SDS011;29660;42.892;24.710;2022-10-16T05:32:34;26.67;;;22.17;;
44000;SDS011;29660;42.892;24.710;2022-10-16T05:37:36;25.30;;;20.42;;
44000;SDS011;29660;42.892;24.710;2022-10-16T05:42:39;23.05;;;19.33;;
44000;SDS011;29660;42.892;24.710;2022-10-16T05:47:41;23.95;;;17.02;;
44000;SDS011;29660;42.892;24.710;2022-10-16T05:52:43;23.00;;;17.58;;
44000;SDS011;29660;42.892;24.710;2022-10-16T05:57:45;21.92;;;17.10;;
44000;SDS011;29660;42.892;24.710;2022-10-16T06:02:47;20.27;;;16.30;;
44000;SDS011;29660;42.892;24.710;2022-10-16T06:07:49;16.45;;;14.57;;
44000;SDS011;29660;42.892;24.710;2022-10-16T06:12:51;16.50;;;13.05;;
44000;SDS011;29660;42.892;24.710;2022-10-16T06:17:53;16.25;;;13.60;;
44000;SDS011;29660;42.892;24.710;2022-10-16T06:22:55;16.25;;;12.02;;
44000;SDS011;29660;42.892;24.710;2022-10-16T06:27:57;17.40;;;14.05;;
44000;SDS011;29660;42.892;24.710;2022-10-16T06:32:59;24.10;;;17.10;;
44000;SDS011;29660;42.892;24.710;2022-10-16T06:38:01;21.10;;;13.70;;
44000;SDS011;29660;42.892;24.710;2022-10-16T06:43:03;19.60;;;16.75;;
44000;SDS011;29660;42.892;24.710;2022-10-16T06:48:05;20.05;;;14.45;;
44000;SDS011;29660;42.892;24.710;2022-10-16T06:53:08;15.65;;;11.60;;
44000;SDS011;29660;42.892;24.710;2022-10-16T06:58:10;13.40;;;10.02;;
44000;SDS011;29660;42.892;24.710;2022-10-16T07:03:12;10.60;;;8.98;;
44000;SDS011;29660;42.892;24.710;2022-10-16T07:08:14;16.00;;;9.25;;
44000;SDS011;29660;42.892;24.710;2022-10-16T07:13:16;11.77;;;8.20;;
44000;SDS011;29660;42.892;24.710;2022-10-16T07:18:18;15.63;;;8.43;;
44000;SDS011;29660;42.892;24.710;2022-10-16T07:23:20;12.48;;;9.52;;
44000;SDS011;29660;42.892;24.710;2022-10-16T07:28:22;12.20;;;7.82;;
44000;SDS011;29660;42.892;24.710;2022-10-16T07:33:24;11.85;;;7.80;;
44000;SDS011;29660;42.892;24.710;2022-10-16T07:38:26;11.20;;;7.97;;
44000;SDS011;29660;42.892;24.710;2022-10-16T07:43:29;9.15;;;6.75;;
44000;SDS011;29660;42.892;24.710;2022-10-16T07:48:32;9.75;;;6.32;;
44000;SDS011;29660;42.892;24.710;2022-10-16T07:53:35;7.45;;;6.60;;
44000;SDS011;29660;42.892;24.710;2022-10-16T07:58:37;6.40;;;5.15;;
44000;SDS011;29660;42.892;24.710;2022-10-16T08:03:43;7.68;;;5.00;;
44000;SDS011;29660;42.892;24.710;2022-10-16T08:08:49;10.40;;;5.90;;
44000;SDS011;29660;42.892;24.710;2022-10-16T08:13:51;8.60;;;5.60;;
44000;SDS011;29660;42.892;24.710;2022-10-16T08:18:53;8.73;;;5.00;;
44000;SDS011;29660;42.892;24.710;2022-10-16T08:23:55;8.27;;;4.97;;
44000;SDS011;29660;42.892;24.710;2022-10-16T08:28:59;9.85;;;5.57;;
44000;SDS011;29660;42.892;24.710;2022-10-16T08:34:01;10.32;;;5.13;;
44000;SDS011;29660;42.892;24.710;2022-10-16T08:39:03;9.13;;;4.90;;
44000;SDS011;29660;42.892;24.710;2022-10-16T08:44:21;7.90;;;4.32;;
44000;SDS011;29660;42.892;24.710;2022-10-16T08:49:42;7.75;;;4.40;;
44000;SDS011;29660;42.892;24.710;2022-10-16T08:54:50;8.27;;;4.60;;
44000;SDS011;29660;42.892;24.710;2022-10-16T08:59:57;8.10;;;4.30;;
44000;SDS011;29660;42.892;24.710;2022-10-16T09:05:06;8.32;;;4.72;;
44000;SDS011;29660;42.892;24.710;2022-10-16T09:10:41;7.60;;;4.82;;
44000;SDS011;29660;42.892;24.710;2022-10-16T09:15:53;8.43;;;4.28;;
44000;SDS011;29660;42.892;24.710;2022-10-16T09:21:19;5.75;;;4.30;;
44000;SDS011;29660;42.892;24.710;2022-10-16T09:26:25;7.35;;;4.72;;
44000;SDS011;29660;42.892;24.710;2022-10-16T09:31:27;8.30;;;4.22;;
44000;SDS011;29660;42.892;24.710;2022-10-16T09:36:29;7.97;;;3.97;;
44000;SDS011;29660;42.892;24.710;2022-10-16T09:41:41;6.07;;;3.70;;
44000;SDS011;29660;42.892;24.710;2022-10-16T09:46:45;8.57;;;4.00;;
44000;SDS011;29660;42.892;24.710;2022-10-16T09:51:47;8.98;;;6.03;;
44000;SDS011;29660;42.892;24.710;2022-10-16T09:56:49;9.65;;;5.07;;
44000;SDS011;29660;42.892;24.710;2022-10-16T10:01:53;10.10;;;5.35;;
44000;SDS011;29660;42.892;24.710;2022-10-16T10:06:56;9.43;;;5.85;;
44000;SDS011;29660;42.892;24.710;2022-10-16T10:11:59;8.38;;;5.40;;
44000;SDS011;29660;42.892;24.710;2022-10-16T11:00:51;9.88;;;6.75;;
44000;SDS011;29660;42.892;24.710;2022-10-16T11:06:40;8.93;;;6.78;;
44000;SDS011;29660;42.892;24.710;2022-10-16T11:17:17;14.13;;;7.88;;
44000;SDS011;29660;42.892;24.710;2022-10-16T11:22:34;10.73;;;7.40;;
44000;SDS011;29660;42.892;24.710;2022-10-16T11:38:38;9.00;;;6.43;;
44000;SDS011;29660;42.892;24.710;2022-10-16T11:49:26;7.45;;;6.25;;
44000;SDS011;29660;42.892;24.710;2022-10-16T11:59:54;6.97;;;5.57;;
44000;SDS011;29660;42.892;24.710;2022-10-16T12:10:22;9.02;;;5.20;;
44000;SDS011;29660;42.892;24.710;2022-10-16T12:15:31;5.80;;;4.60;;
44000;SDS011;29660;42.892;24.710;2022-10-16T12:20:57;7.75;;;5.43;;
44000;SDS011;29660;42.892;24.710;2022-10-16T12:26:01;6.93;;;5.32;;
44000;SDS011;29660;42.892;24.710;2022-10-16T12:31:05;8.80;;;4.82;;
44000;SDS011;29660;42.892;24.710;2022-10-16T12:36:26;6.75;;;4.65;;
44000;SDS011;29660;42.892;24.710;2022-10-16T12:41:33;5.45;;;4.53;;
44000;SDS011;29660;42.892;24.710;2022-10-16T12:46:37;5.35;;;4.43;;
44000;SDS011;29660;42.892;24.710;2022-10-16T12:51:41;6.35;;;4.28;;
44000;SDS011;29660;42.892;24.710;2022-10-16T13:23:34;7.47;;;4.40;;
44000;SDS011;29660;42.892;24.710;2022-10-16T13:28:44;8.38;;;5.05;;
44000;SDS011;29660;42.892;24.710;2022-10-16T13:33:47;8.07;;;4.50;;
44000;SDS011;29660;42.892;24.710;2022-10-16T13:44:26;8.95;;;5.03;;
44000;SDS011;29660;42.892;24.710;2022-10-16T13:49:28;17.58;;;6.22;;
44000;SDS011;29660;42.892;24.710;2022-10-16T13:54:30;7.93;;;5.13;;
44000;SDS011;29660;42.892;24.710;2022-10-16T13:59:33;8.52;;;6.00;;
44000;SDS011;29660;42.892;24.710;2022-10-16T14:04:37;8.80;;;4.80;;
44000;SDS011;29660;42.892;24.710;2022-10-16T14:09:40;5.88;;;5.28;;
44000;SDS011;29660;42.892;24.710;2022-10-16T14:14:47;6.88;;;4.35;;
44000;SDS011;29660;42.892;24.710;2022-10-16T14:19:58;7.45;;;5.47;;
44000;SDS011;29660;42.892;24.710;2022-10-16T14:25:26;9.80;;;6.20;;
44000;SDS011;29660;42.892;24.710;2022-10-16T14:30:29;8.75;;;6.13;;
44000;SDS011;29660;42.892;24.710;2022-10-16T14:35:34;7.88;;;5.15;;
44000;SDS011;29660;42.892;24.710;2022-10-16T14:40:45;7.63;;;5.60;;
44000;SDS011;29660;42.892;24.710;2022-10-16T14:45:53;9.05;;;5.70;;
44000;SDS011;29660;42.892;24.710;2022-10-16T14:50:57;10.30;;;6.60;;
44000;SDS011;29660;42.892;24.710;2022-10-16T14:56:05;30.55;;;19.15;;
44000;SDS011;29660;42.892;24.710;2022-10-16T15:01:09;14.45;;;10.38;;
44000;SDS011;29660;42.892;24.710;2022-10-16T15:06:15;11.52;;;9.80;;
44000;SDS011;29660;42.892;24.710;2022-10-16T15:11:18;10.13;;;6.35;;
44000;SDS011;29660;42.892;24.710;2022-10-16T15:16:21;29.73;;;21.15;;
44000;SDS011;29660;42.892;24.710;2022-10-16T15:21:32;22.75;;;17.83;;
44000;SDS011;29660;42.892;24.710;2022-10-16T15:26:34;25.25;;;17.55;;
44000;SDS011;29660;42.892;24.710;2022-10-16T15:31:36;56.72;;;48.63;;
44000;SDS011;29660;42.892;24.710;2022-10-16T15:36:39;117.18;;;94.25;;
44000;SDS011;29660;42.892;24.710;2022-10-16T15:41:42;81.55;;;57.53;;
44000;SDS011;29660;42.892;24.710;2022-10-16T15:46:45;63.60;;;45.47;;
44000;SDS011;29660;42.892;24.710;2022-10-16T15:51:47;80.72;;;55.67;;
44000;SDS011;29660;42.892;24.710;2022-10-16T15:56:49;116.10;;;75.20;;
44000;SDS011;29660;42.892;24.710;2022-10-16T16:01:54;68.45;;;48.72;;
44000;SDS011;29660;42.892;24.710;2022-10-16T16:06:56;131.55;;;83.72;;
44000;SDS011;29660;42.892;24.710;2022-10-16T16:11:58;97.53;;;60.72;;
44000;SDS011;29660;42.892;24.710;2022-10-16T16:17:02;78.95;;;57.85;;
44000;SDS011;29660;42.892;24.710;2022-10-16T16:22:04;150.05;;;99.72;;
44000;SDS011;29660;42.892;24.710;2022-10-16T16:27:08;168.82;;;121.15;;
44000;SDS011;29660;42.892;24.710;2022-10-16T16:32:10;102.78;;;75.57;;
44000;SDS011;29660;42.892;24.710;2022-10-16T16:37:13;62.47;;;48.50;;
44000;SDS011;29660;42.892;24.710;2022-10-16T16:42:15;62.33;;;49.22;;
44000;SDS011;29660;42.892;24.710;2022-10-16T16:47:17;76.75;;;60.05;;
44000;SDS011;29660;42.892;24.710;2022-10-16T16:52:19;49.40;;;36.03;;
44000;SDS011;29660;42.892;24.710;2022-10-16T16:57:22;138.80;;;114.07;;
44000;SDS011;29660;42.892;24.710;2022-10-16T17:02:24;68.00;;;50.80;;
44000;SDS011;29660;42.892;24.710;2022-10-16T17:07:30;48.08;;;36.35;;
44000;SDS011;29660;42.892;24.710;2022-10-16T17:12:34;42.90;;;32.53;;
44000;SDS011;29660;42.892;24.710;2022-10-16T17:17:36;40.65;;;33.17;;
44000;SDS011;29660;42.892;24.710;2022-10-16T17:22:38;41.30;;;34.15;;
44000;SDS011;29660;42.892;24.710;2022-10-16T17:27:40;47.08;;;34.70;;
44000;SDS011;29660;42.892;24.710;2022-10-16T17:32:42;50.05;;;42.50;;
44000;SDS011;29660;42.892;24.710;2022-10-16T17:37:44;41.95;;;33.97;;
44000;SDS011;29660;42.892;24.710;2022-10-16T17:42:46;34.28;;;27.25;;
44000;SDS011;29660;42.892;24.710;2022-10-16T17:47:51;68.25;;;44.08;;
44000;SDS011;29660;42.892;24.710;2022-10-16T17:52:53;37.22;;;28.77;;
44000;SDS011;29660;42.892;24.710;2022-10-16T17:57:56;38.05;;;28.25;;
44000;SDS011;29660;42.892;24.710;2022-10-16T18:02:58;41.35;;;33.85;;
44000;SDS011;29660;42.892;24.710;2022-10-16T18:08:00;45.38;;;34.90;;
44000;SDS011;29660;42.892;24.710;2022-10-16T18:13:01;46.53;;;35.92;;
44000;SDS011;29660;42.892;24.710;2022-10-16T18:18:03;51.33;;;39.78;;
44000;SDS011;29660;42.892;24.710;2022-10-16T18:23:06;82.35;;;68.35;;
44000;SDS011;29660;42.892;24.710;2022-10-16T18:28:10;46.65;;;37.42;;
44000;SDS011;29660;42.892;24.710;2022-10-16T18:33:12;45.83;;;33.72;;
44000;SDS011;29660;42.892;24.710;2022-10-16T18:38:14;46.88;;;35.47;;
44000;SDS011;29660;42.892;24.710;2022-10-16T18:43:16;50.80;;;36.97;;
44000;SDS011;29660;42.892;24.710;2022-10-16T18:48:19;53.65;;;36.97;;
44000;SDS011;29660;42.892;24.710;2022-10-16T18:53:21;51.20;;;36.35;;
44000;SDS011;29660;42.892;24.710;2022-10-16T18:58:23;37.50;;;28.73;;
44000;SDS011;29660;42.892;24.710;2022-10-16T19:03:26;42.28;;;31.45;;
44000;SDS011;29660;42.892;24.710;2022-10-16T19:08:28;42.75;;;33.03;;
44000;SDS011;29660;42.892;24.710;2022-10-16T19:13:32;46.20;;;33.58;;
44000;SDS011;29660;42.892;24.710;2022-10-16T19:18:35;37.22;;;26.02;;
44000;SDS011;29660;42.892;24.710;2022-10-16T19:23:39;32.08;;;24.50;;
44000;SDS011;29660;42.892;24.710;2022-10-16T19:28:42;34.10;;;23.98;;
44000;SDS011;29660;42.892;24.710;2022-10-16T19:33:45;34.17;;;24.75;;
44000;SDS011;29660;42.892;24.710;2022-10-16T19:38:47;27.30;;;23.35;;
44000;SDS011;29660;42.892;24.710;2022-10-16T19:43:53;28.98;;;22.48;;
44000;SDS011;29660;42.892;24.710;2022-10-16T19:48:56;30.25;;;21.90;;
44000;SDS011;29660;42.892;24.710;2022-10-16T19:54:03;28.70;;;21.10;;
44000;SDS011;29660;42.892;24.710;2022-10-16T19:59:08;30.75;;;22.55;;
44000;SDS011;29660;42.892;24.710;2022-10-16T20:04:13;26.85;;;20.42;;
44000;SDS011;29660;42.892;24.710;2022-10-16T20:09:15;23.42;;;17.90;;
44000;SDS011;29660;42.892;24.710;2022-10-16T20:14:17;23.30;;;18.15;;
44000;SDS011;29660;42.892;24.710;2022-10-16T20:19:19;30.00;;;20.98;;
44000;SDS011;29660;42.892;24.710;2022-10-16T20:24:21;33.35;;;25.63;;
44000;SDS011;29660;42.892;24.710;2022-10-16T20:29:23;31.80;;;23.80;;
44000;SDS011;29660;42.892;24.710;2022-10-16T20:34:25;22.95;;;19.38;;
44000;SDS011;29660;42.892;24.710;2022-10-16T20:39:27;30.88;;;21.75;;
44000;SDS011;29660;42.892;24.710;2022-10-16T20:44:29;33.60;;;23.48;;
44000;SDS011;29660;42.892;24.710;2022-10-16T20:49:31;30.95;;;23.63;;
44000;SDS011;29660;42.892;24.710;2022-10-16T20:54:43;44.58;;;26.63;;
44000;SDS011;29660;42.892;24.710;2022-10-16T20:59:45;47.83;;;28.05;;
44000;SDS011;29660;42.892;24.710;2022-10-16T21:04:49;36.58;;;24.13;;
44000;SDS011;29660;42.892;24.710;2022-10-16T21:09:53;41.95;;;27.08;;
44000;SDS011;29660;42.892;24.710;2022-10-16T21:14:56;35.03;;;23.25;;
44000;SDS011;29660;42.892;24.710;2022-10-16T21:20:15;30.90;;;20.97;;
44000;SDS011;29660;42.892;24.710;2022-10-16T21:25:17;31.27;;;20.45;;
44000;SDS011;29660;42.892;24.710;2022-10-16T21:30:19;27.23;;;20.67;;
44000;SDS011;29660;42.892;24.710;2022-10-16T21:35:21;182.10;;;75.13;;
44000;SDS011;29660;42.892;24.710;2022-10-16T21:40:23;64.07;;;35.40;;
44000;SDS011;29660;42.892;24.710;2022-10-16T21:45:27;37.25;;;22.92;;
44000;SDS011;29660;42.892;24.710;2022-10-16T21:50:29;24.77;;;17.88;;
44000;SDS011;29660;42.892;24.710;2022-10-16T21:55:34;16.60;;;11.77;;
44000;SDS011;29660;42.892;24.710;2022-10-16T22:00:37;15.65;;;11.82;;
44000;SDS011;29660;42.892;24.710;2022-10-16T22:05:39;15.95;;;11.82;;
44000;SDS011;29660;42.892;24.710;2022-10-16T22:10:41;15.48;;;12.30;;
44000;SDS011;29660;42.892;24.710;2022-10-16T22:15:47;19.00;;;13.85;;
44000;SDS011;29660;42.892;24.710;2022-10-16T22:20:52;20.90;;;15.60;;
44000;SDS011;29660;42.892;24.710;2022-10-16T22:25:58;20.92;;;15.20;;
44000;SDS011;29660;42.892;24.710;2022-10-16T22:31:06;23.08;;;16.02;;
44000;SDS011;29660;42.892;24.710;2022-10-16T22:36:10;22.75;;;16.10;;
44000;SDS011;29660;42.892;24.710;2022-10-16T22:41:13;24.27;;;19.80;;
44000;SDS011;29660;42.892;24.710;2022-10-16T22:46:17;23.95;;;18.63;;
44000;SDS011;29660;42.892;24.710;2022-10-16T22:56:27;27.55;;;17.63;;
44000;SDS011;29660;42.892;24.710;2022-10-16T23:01:30;23.77;;;18.20;;
44000;SDS011;29660;42.892;24.710;2022-10-16T23:06:35;20.60;;;16.27;;
44000;SDS011;29660;42.892;24.710;2022-10-16T23:23:20;22.17;;;16.58;;
44000;SDS011;29660;42.892;24.710;2022-10-16T23:28:22;20.17;;;13.70;;
44000;SDS011;29660;42.892;24.710;2022-10-16T23:33:24;16.13;;;12.68;;
44000;SDS011;29660;42.892;24.710;2022-10-16T23:38:25;18.95;;;13.27;;
44000;SDS011;29660;42.892;24.710;2022-10-16T23:43:27;20.10;;;16.75;;
44000;SDS011;29660;42.892;24.710;2022-10-16T23:48:30;20.02;;;14.98;;
44000;SDS011;29660;42.892;24.710;2022-10-16T23:53:32;19.48;;;14.70;;
44000;SDS011;29660;42.892;24.710;2022-10-16T23:58:34;20.30;;;13.23;;
